createdAt,value
2022-09-13T05:24:06.157Z,10.11
2022-09-13T05:26:35.650Z,10.60
2022-09-13T05:29:03.913Z,11.02
2022-09-13T05:31:36.126Z,11.52
2022-09-13T05:34:14.462Z,11.87
2022-09-13T05:36:42.279Z,12.18
2022-09-13T05:39:29.772Z,12.57
2022-09-13T05:41:59.113Z,12.97
2022-09-13T05:44:26.096Z,13.17
2022-09-13T05:46:53.104Z,13.53
2022-09-13T05:49:20.369Z,13.86
2022-09-13T05:51:49.551Z,14.05
2022-09-13T05:54:16.790Z,14.26
2022-09-13T05:56:43.847Z,14.58
2022-09-13T05:59:17.626Z,14.62
2022-09-13T06:01:45.288Z,14.89
2022-09-13T06:04:13.130Z,14.63
2022-09-13T06:06:40.241Z,15.07
2022-09-13T06:09:09.005Z,14.95
2022-09-13T06:11:35.984Z,15.24
2022-09-13T06:14:03.048Z,15.56
2022-09-13T06:16:32.742Z,15.70
2022-09-13T06:19:01.195Z,15.76
2022-09-13T06:21:29.411Z,16.09
2022-09-13T06:23:57.138Z,16.30
2022-09-13T06:26:28.725Z,16.65
2022-09-13T06:28:58.432Z,16.56
2022-09-13T06:31:28.563Z,17.01
2022-09-13T06:34:02.588Z,17.79
2022-09-13T06:36:31.349Z,18.09
2022-09-13T06:39:00.732Z,17.86
2022-09-13T06:41:28.373Z,16.95
2022-09-13T06:44:15.365Z,16.54
2022-09-13T06:46:42.496Z,16.65
2022-09-13T06:49:10.846Z,17.47
2022-09-13T06:51:40.305Z,18.13
2022-09-13T06:54:07.312Z,18.37
2022-09-13T06:56:37.954Z,18.71
2022-09-13T06:59:08.575Z,17.57
2022-09-13T07:01:40.299Z,17.16
2022-09-13T07:04:13.303Z,17.69
2022-09-13T07:06:47.031Z,18.35
2022-09-13T07:09:22.295Z,18.56
2022-09-13T07:11:53.255Z,18.29
2022-09-13T07:14:27.673Z,18.68
2022-09-13T07:16:55.791Z,18.54
2022-09-13T07:19:28.648Z,18.26
2022-09-13T07:21:57.356Z,18.67
2022-09-13T07:24:27.451Z,19.34
2022-09-13T07:26:57.014Z,19.49
2022-09-13T07:29:24.353Z,19.13
2022-09-13T07:31:54.664Z,19.21
2022-09-13T07:34:24.485Z,19.78
2022-09-13T07:36:52.566Z,20.14
2022-09-13T07:39:22.718Z,20.61
2022-09-13T07:41:51.625Z,20.55
2022-09-13T07:44:18.702Z,20.84
2022-09-13T07:46:45.855Z,21.94
2022-09-13T07:49:17.180Z,21.17
2022-09-13T07:51:45.201Z,21.85
2022-09-13T07:54:16.228Z,22.37
2022-09-13T07:56:43.723Z,22.02
2022-09-13T07:59:16.956Z,24.01
2022-09-13T08:01:49.712Z,25.18
2022-09-13T08:04:21.342Z,24.33
2022-09-13T08:06:48.504Z,24.53
2022-09-13T08:09:16.853Z,23.21
2022-09-13T08:11:49.325Z,23.48
2022-09-13T08:14:26.732Z,24.36
2022-09-13T08:16:57.203Z,23.68
2022-09-13T08:19:24.199Z,23.56
2022-09-13T08:21:51.182Z,23.40
2022-09-13T08:24:23.674Z,23.97
2022-09-13T08:26:54.573Z,23.79
2022-09-13T08:29:21.606Z,23.02
2022-09-13T08:31:48.681Z,23.59
2022-09-13T08:34:16.674Z,23.19
2022-09-13T08:36:44.411Z,22.74
2022-09-13T08:39:14.000Z,23.14
2022-09-13T08:41:42.399Z,23.93
2022-09-13T08:44:27.325Z,24.16
2022-09-13T08:47:24.857Z,21.71
2022-09-13T08:50:12.880Z,22.41
2022-09-13T08:52:52.273Z,22.57
2022-09-13T08:55:49.697Z,21.89
2022-09-13T08:58:44.304Z,21.77
2022-09-13T09:01:38.206Z,20.77
2022-09-13T09:04:54.724Z,22.36
2022-09-13T09:07:27.578Z,20.89
2022-09-13T09:10:04.382Z,21.49
2022-09-13T09:12:42.309Z,21.04
2022-09-13T09:15:34.707Z,21.14
2022-09-13T09:18:11.149Z,20.18
2022-09-13T09:21:04.084Z,20.69
2022-09-13T09:23:39.102Z,20.14
2022-09-13T09:26:23.151Z,21.27
2022-09-13T09:29:18.221Z,20.95
2022-09-13T09:32:19.870Z,20.91
2022-09-13T09:35:15.606Z,20.71
2022-09-13T09:37:54.375Z,21.16
2022-09-13T09:40:21.457Z,20.58
2022-09-13T09:42:49.908Z,20.57
2022-09-13T09:45:34.023Z,20.50
2022-09-13T09:48:13.071Z,19.92
2022-09-13T09:50:49.541Z,20.36
2022-09-13T09:53:43.853Z,21.03
2022-09-13T09:56:30.293Z,20.66
2022-09-13T09:58:59.941Z,20.83
2022-09-13T10:01:34.209Z,20.88
2022-09-13T10:04:10.536Z,21.22
2022-09-13T10:06:42.721Z,20.48
2022-09-13T10:09:09.504Z,19.80
2022-09-13T10:11:51.296Z,20.13
2022-09-13T10:14:28.819Z,19.91
2022-09-13T10:17:06.566Z,20.17
2022-09-13T10:19:33.857Z,21.06
2022-09-13T10:22:11.287Z,21.02
2022-09-13T10:24:39.446Z,21.06
2022-09-13T10:27:35.007Z,20.84
2022-09-13T10:30:05.053Z,20.98
2022-09-13T10:32:33.275Z,20.34
2022-09-13T10:35:19.840Z,21.09
2022-09-13T10:37:47.210Z,21.32
2022-09-13T10:40:30.517Z,21.20
2022-09-13T10:43:03.257Z,21.25
2022-09-13T10:45:31.955Z,21.16
2022-09-13T10:48:15.446Z,21.88
2022-09-13T10:51:08.963Z,21.10
2022-09-13T10:53:41.051Z,21.53
2022-09-13T10:56:26.387Z,22.57
2022-09-13T10:59:42.818Z,22.58
2022-09-13T11:03:04.499Z,22.55
2022-09-13T11:05:50.890Z,22.50
2022-09-13T11:08:36.469Z,22.04
2022-09-13T11:11:21.585Z,22.49
2022-09-13T11:14:29.112Z,22.41
2022-09-13T11:17:25.013Z,22.51
2022-09-13T11:20:10.184Z,22.48
2022-09-13T11:22:55.869Z,21.93
2022-09-13T11:26:04.576Z,21.95
2022-09-13T11:28:58.674Z,22.38
2022-09-13T11:32:06.067Z,22.51
2022-09-13T11:34:51.406Z,21.73
2022-09-13T11:38:04.297Z,22.20
2022-09-13T11:41:05.268Z,22.72
2022-09-13T11:44:10.702Z,22.12
2022-09-13T11:47:13.768Z,22.01
2022-09-13T11:50:00.039Z,22.03
2022-09-13T11:53:02.229Z,22.19
2022-09-13T11:55:58.639Z,22.11
2022-09-13T11:58:52.368Z,21.60
2022-09-13T12:01:20.330Z,22.32
2022-09-13T12:04:01.080Z,22.38
2022-09-13T12:06:40.698Z,21.82
2022-09-13T12:09:25.719Z,22.11
2022-09-13T12:12:31.397Z,21.66
2022-09-13T12:15:07.929Z,21.32
2022-09-13T12:17:45.190Z,22.00
2022-09-13T12:20:37.569Z,21.65
2022-09-13T12:23:11.735Z,21.87
2022-09-13T12:25:55.891Z,21.84
2022-09-13T12:28:50.030Z,21.08
2022-09-13T12:31:23.524Z,21.55
2022-09-13T12:33:54.262Z,21.68
2022-09-13T12:36:45.838Z,22.09
2022-09-13T12:39:49.479Z,22.14
2022-09-13T12:43:13.221Z,21.99
2022-09-13T12:46:04.283Z,21.77
2022-09-13T12:48:52.458Z,21.72
2022-09-13T12:51:41.161Z,21.99
2022-09-13T12:54:35.357Z,21.70
2022-09-13T12:57:36.178Z,22.07
2022-09-13T13:00:20.913Z,21.52
2022-09-13T13:03:11.996Z,21.95
2022-09-13T13:05:57.372Z,22.17
2022-09-13T13:08:34.049Z,22.32
2022-09-13T13:11:13.054Z,22.56
2022-09-13T13:13:57.810Z,22.15
2022-09-13T13:16:34.212Z,22.24
2022-09-13T13:19:05.019Z,22.17
2022-09-13T13:21:38.970Z,22.77
2022-09-13T13:24:28.738Z,23.10
2022-09-13T13:26:58.598Z,22.98
2022-09-13T13:29:26.220Z,21.97
2022-09-13T13:32:01.370Z,21.63
2022-09-13T13:34:39.832Z,22.23
2022-09-13T13:37:31.720Z,22.71
2022-09-13T13:39:59.559Z,23.20
2022-09-13T13:42:33.158Z,22.57
2022-09-13T13:45:00.106Z,22.50
2022-09-13T13:47:30.298Z,21.97
2022-09-13T13:50:00.179Z,22.96
2022-09-13T13:52:35.906Z,22.86
2022-09-13T13:55:23.580Z,22.54
2022-09-13T13:58:04.892Z,22.13
2022-09-13T14:00:36.594Z,22.60
2022-09-13T14:03:22.878Z,22.52
2022-09-13T14:06:10.890Z,23.02
2022-09-13T14:08:51.336Z,22.59
2022-09-13T14:11:43.022Z,22.37
2022-09-13T14:14:27.891Z,22.41
2022-09-13T14:17:29.655Z,22.43
2022-09-13T14:20:21.033Z,22.41
2022-09-13T14:22:48.484Z,22.36
2022-09-13T14:25:23.827Z,22.07
2022-09-13T14:27:59.045Z,21.81
2022-09-13T14:30:35.023Z,22.10
2022-09-13T14:33:05.467Z,21.95
2022-09-13T14:35:40.876Z,22.41
2022-09-13T14:38:25.413Z,22.14
2022-09-13T14:41:02.241Z,22.42
2022-09-13T14:43:31.549Z,22.59
2022-09-13T14:46:31.703Z,22.69
2022-09-13T14:49:03.123Z,22.59
2022-09-13T14:51:50.265Z,22.28
2022-09-13T14:54:21.780Z,22.19
2022-09-13T14:56:54.445Z,22.01
2022-09-13T14:59:36.541Z,21.36
2022-09-13T15:02:25.902Z,21.30
2022-09-13T15:05:01.358Z,21.36
2022-09-13T15:07:42.628Z,21.56
2022-09-13T15:10:12.564Z,21.48
2022-09-13T15:13:00.682Z,21.70
2022-09-13T15:15:45.302Z,21.46
2022-09-13T15:18:20.070Z,21.60
2022-09-13T15:21:02.064Z,21.60
2022-09-13T15:23:41.501Z,21.35
2022-09-13T15:26:21.511Z,21.27
2022-09-13T15:29:04.178Z,21.31
2022-09-13T15:31:34.558Z,21.70
2022-09-13T15:34:23.945Z,21.29
2022-09-13T15:37:14.645Z,21.66
2022-09-13T15:40:14.435Z,21.40
2022-09-13T15:42:44.771Z,21.28
2022-09-13T15:45:12.614Z,21.68
2022-09-13T15:47:39.653Z,21.67
2022-09-13T15:50:07.302Z,21.89
2022-09-13T15:52:34.351Z,21.92
2022-09-13T15:55:01.357Z,21.65
2022-09-13T15:57:29.720Z,21.73
2022-09-13T16:00:01.456Z,21.94
2022-09-13T16:02:37.013Z,21.90
2022-09-13T16:05:04.647Z,21.77
2022-09-13T16:07:31.612Z,21.92
2022-09-13T16:09:59.033Z,21.81
2022-09-13T16:12:27.049Z,21.96
2022-09-13T16:14:54.768Z,21.70
2022-09-13T16:17:26.790Z,21.86
2022-09-13T16:19:56.710Z,21.80
2022-09-13T16:22:23.795Z,22.20
2022-09-13T16:24:53.492Z,22.06
2022-09-13T16:27:21.132Z,21.72
2022-09-13T16:29:48.118Z,22.04
2022-09-13T16:32:15.760Z,21.95
2022-09-13T16:34:45.078Z,22.12
2022-09-13T16:37:19.253Z,21.92
2022-09-13T16:39:46.690Z,22.03
2022-09-13T16:42:17.537Z,21.55
2022-09-13T16:44:44.844Z,21.66
2022-09-13T16:47:12.094Z,21.80
2022-09-13T16:49:39.143Z,21.89
2022-09-13T16:52:09.795Z,21.66
2022-09-13T16:54:37.159Z,22.01
2022-09-13T16:57:06.415Z,21.96
2022-09-13T16:59:36.038Z,21.65
2022-09-13T17:02:03.975Z,21.84
2022-09-13T17:04:33.847Z,21.46
2022-09-13T17:07:02.202Z,21.72
2022-09-13T17:09:30.874Z,21.41
2022-09-13T17:11:58.582Z,21.20
2022-09-13T17:14:25.899Z,21.32
2022-09-13T17:16:57.172Z,21.02
2022-09-13T17:19:30.547Z,20.92
2022-09-13T17:21:58.047Z,21.04
2022-09-13T17:24:27.141Z,21.03
2022-09-13T17:27:01.379Z,20.84
2022-09-13T17:29:31.503Z,20.82
2022-09-13T17:32:00.343Z,20.88
2022-09-13T17:34:28.292Z,20.92
2022-09-13T17:36:55.371Z,20.94
2022-09-13T17:39:24.833Z,20.63
2022-09-13T17:41:54.824Z,20.61
2022-09-13T17:44:22.094Z,20.73
2022-09-13T17:46:49.176Z,20.55
2022-09-13T17:49:16.207Z,20.64
2022-09-13T17:51:45.323Z,20.52
2022-09-13T17:54:12.914Z,20.78
2022-09-13T17:56:43.333Z,20.41
2022-09-13T17:59:17.185Z,20.85
2022-09-13T18:01:53.569Z,20.98
2022-09-13T18:04:31.459Z,20.75
2022-09-13T18:06:58.582Z,20.80
2022-09-13T18:09:27.234Z,20.94
2022-09-13T18:11:56.843Z,20.91
2022-09-13T18:14:24.532Z,21.09
2022-09-13T18:16:55.686Z,21.08
2022-09-13T18:19:44.213Z,21.07
2022-09-13T18:22:10.679Z,20.79
2022-09-13T18:24:37.727Z,20.88
2022-09-13T18:27:05.002Z,20.90
2022-09-13T18:29:32.977Z,20.88
2022-09-13T18:32:00.038Z,20.61
2022-09-13T18:34:27.925Z,20.70
2022-09-13T18:36:55.468Z,20.45
2022-09-13T18:39:23.441Z,20.40
2022-09-13T18:41:50.812Z,20.16
2022-09-13T18:44:19.059Z,20.23
2022-09-13T18:46:47.487Z,20.11
2022-09-13T18:49:18.400Z,20.06
2022-09-13T18:51:49.477Z,19.72
2022-09-13T18:54:19.323Z,19.97
2022-09-13T18:56:48.058Z,20.17
2022-09-13T18:59:15.565Z,20.45
2022-09-13T19:01:46.597Z,20.41
2022-09-13T19:04:17.602Z,20.09
2022-09-13T19:06:58.551Z,19.47
2022-09-13T19:09:26.030Z,19.52
2022-09-13T19:11:54.778Z,19.20
2022-09-13T19:14:28.569Z,19.45
2022-09-13T19:17:01.247Z,19.44
2022-09-13T19:19:30.987Z,19.34
2022-09-13T19:21:58.677Z,19.47
2022-09-13T19:24:28.456Z,19.23
2022-09-13T19:26:58.980Z,18.99
2022-09-13T19:29:26.910Z,19.17
2022-09-13T19:31:56.043Z,19.02
2022-09-13T19:34:23.718Z,19.06
2022-09-13T19:36:58.025Z,19.12
2022-09-13T19:39:29.678Z,18.95
2022-09-13T19:42:00.145Z,18.87
2022-09-13T19:44:28.419Z,18.67
2022-09-13T19:47:36.421Z,18.88
2022-09-13T19:49:44.641Z,18.50
2022-09-13T19:52:12.383Z,18.89
2022-09-13T19:54:40.060Z,18.98
2022-09-13T19:57:09.995Z,19.01
2022-09-13T19:59:39.091Z,19.03
2022-09-13T20:02:07.180Z,19.08
2022-09-13T20:04:37.363Z,19.09
2022-09-13T20:07:12.283Z,19.17
2022-09-13T20:09:42.303Z,19.09
2022-09-13T20:12:13.112Z,19.17
2022-09-13T20:14:40.258Z,19.37
2022-09-13T20:17:07.776Z,19.47
2022-09-13T20:19:46.436Z,19.40
2022-09-13T20:22:17.391Z,19.45
2022-09-13T20:24:44.792Z,19.32
2022-09-13T20:27:12.508Z,19.23
2022-09-13T20:29:40.428Z,19.45
2022-09-13T20:32:08.184Z,19.35
2022-09-13T20:34:37.910Z,19.41
2022-09-13T20:37:05.771Z,19.53
2022-09-13T20:39:33.772Z,19.67
2022-09-13T20:42:01.415Z,19.74
2022-09-13T20:44:29.110Z,19.60
2022-09-13T20:46:56.332Z,19.52
2022-09-13T20:49:26.582Z,19.42
2022-09-13T20:51:54.515Z,19.17
2022-09-13T20:54:23.361Z,19.10
2022-09-13T20:56:50.492Z,19.05
2022-09-13T20:59:17.499Z,18.88
2022-09-13T21:01:47.310Z,18.91
2022-09-13T21:04:14.590Z,19.37
2022-09-13T21:07:03.124Z,19.05
2022-09-13T21:09:31.197Z,19.14
2022-09-13T21:12:03.535Z,19.28
2022-09-13T21:14:32.269Z,19.32
2022-09-13T21:17:01.938Z,19.33
2022-09-13T21:19:29.550Z,19.35
2022-09-13T21:21:56.535Z,19.37
2022-09-13T21:24:23.602Z,19.10
2022-09-13T21:26:53.074Z,18.94
2022-09-13T21:29:22.666Z,19.06
2022-09-13T21:31:52.641Z,19.32
2022-09-13T21:34:20.048Z,19.47
2022-09-13T21:36:47.514Z,19.55
2022-09-13T21:39:16.515Z,19.47
2022-09-13T21:41:43.880Z,19.47
2022-09-13T21:44:11.408Z,19.54
2022-09-13T21:46:40.348Z,19.73
2022-09-13T21:49:11.573Z,19.71
2022-09-13T21:51:48.413Z,19.72
2022-09-13T21:54:19.920Z,19.46
2022-09-13T21:56:54.071Z,19.14
2022-09-13T21:59:23.248Z,19.46
2022-09-13T22:01:52.901Z,19.54
2022-09-13T22:04:28.178Z,19.55
2022-09-13T22:06:58.228Z,19.53
2022-09-13T22:09:27.149Z,19.19
2022-09-13T22:11:55.226Z,19.10
2022-09-13T22:14:24.489Z,19.24
2022-09-13T22:16:53.190Z,19.33
2022-09-13T22:19:26.679Z,19.46
2022-09-13T22:21:59.187Z,19.37
2022-09-13T22:24:29.760Z,19.02
2022-09-13T22:26:58.320Z,19.16
2022-09-13T22:29:25.843Z,19.30
2022-09-13T22:31:56.176Z,19.50
2022-09-13T22:34:25.566Z,19.39
2022-09-13T22:36:56.711Z,19.26
2022-09-13T22:39:26.313Z,19.28
2022-09-13T22:41:53.528Z,19.28
2022-09-13T22:44:20.684Z,19.44
2022-09-13T22:46:48.102Z,19.43
2022-09-13T22:49:18.877Z,19.22
2022-09-13T22:51:50.842Z,19.10
2022-09-13T22:54:19.115Z,19.40
2022-09-13T22:56:46.463Z,18.96
2022-09-13T22:59:17.738Z,19.14
2022-09-13T23:01:45.493Z,18.82
2022-09-13T23:04:15.499Z,19.05
2022-09-13T23:06:46.260Z,18.70
2022-09-13T23:09:18.665Z,18.68
2022-09-13T23:11:46.391Z,18.79
2022-09-13T23:14:16.309Z,18.69
2022-09-13T23:16:49.033Z,18.61
2022-09-13T23:19:18.152Z,18.44
2022-09-13T23:21:47.708Z,18.35
2022-09-13T23:24:17.656Z,18.47
2022-09-13T23:26:46.337Z,18.39
2022-09-13T23:29:19.327Z,18.26
2022-09-13T23:31:49.776Z,18.38
2022-09-13T23:34:22.602Z,18.39
2022-09-13T23:36:50.262Z,18.48
2022-09-13T23:39:19.811Z,18.64
2022-09-13T23:41:51.662Z,18.46
2022-09-13T23:44:21.828Z,18.50
2022-09-13T23:46:49.459Z,18.74
2022-09-13T23:49:17.254Z,18.76
2022-09-13T23:51:45.202Z,18.60
2022-09-13T23:54:16.237Z,18.54
2022-09-13T23:56:44.148Z,18.73
2022-09-13T23:59:13.200Z,18.87
